sensor_id;sensor_type;location;lat;lon;timestamp;temperature;humidity
20568;DHT22;10442;49.932;11.592;2024-03-22T00:01:52;8.80;74.90
20568;DHT22;10442;49.932;11.592;2024-03-22T00:04:18;8.80;74.80
20568;DHT22;10442;49.932;11.592;2024-03-22T00:06:47;8.80;74.90
20568;DHT22;10442;49.932;11.592;2024-03-22T00:09:15;8.70;75.00
20568;DHT22;10442;49.932;11.592;2024-03-22T00:11:43;8.70;75.00
20568;DHT22;10442;49.932;11.592;2024-03-22T00:14:10;8.70;75.00
20568;DHT22;10442;49.932;11.592;2024-03-22T00:16:38;8.70;75.00
20568;DHT22;10442;49.932;11.592;2024-03-22T00:19:06;8.70;75.00
20568;DHT22;10442;49.932;11.592;2024-03-22T00:21:32;8.70;75.00
20568;DHT22;10442;49.932;11.592;2024-03-22T00:23:59;8.60;75.00
20568;DHT22;10442;49.932;11.592;2024-03-22T00:26:27;8.70;75.00
20568;DHT22;10442;49.932;11.592;2024-03-22T00:28:54;8.70;75.10
20568;DHT22;10442;49.932;11.592;2024-03-22T00:31:21;8.70;75.00
20568;DHT22;10442;49.932;11.592;2024-03-22T00:33:47;8.70;75.00
20568;DHT22;10442;49.932;11.592;2024-03-22T00:36:14;8.70;75.00
20568;DHT22;10442;49.932;11.592;2024-03-22T00:38:40;8.70;74.90
20568;DHT22;10442;49.932;11.592;2024-03-22T00:41:07;8.70;74.90
20568;DHT22;10442;49.932;11.592;2024-03-22T00:43:33;8.60;74.80
20568;DHT22;10442;49.932;11.592;2024-03-22T00:46:00;8.60;74.80
20568;DHT22;10442;49.932;11.592;2024-03-22T00:48:29;8.60;74.80
20568;DHT22;10442;49.932;11.592;2024-03-22T00:50:55;8.60;74.70
20568;DHT22;10442;49.932;11.592;2024-03-22T00:53:22;8.60;74.70
20568;DHT22;10442;49.932;11.592;2024-03-22T00:55:49;8.50;74.70
20568;DHT22;10442;49.932;11.592;2024-03-22T00:58:18;8.50;74.70
20568;DHT22;10442;49.932;11.592;2024-03-22T01:00:46;8.40;74.60
20568;DHT22;10442;49.932;11.592;2024-03-22T01:03:13;8.40;74.60
20568;DHT22;10442;49.932;11.592;2024-03-22T01:05:39;8.40;74.70
20568;DHT22;10442;49.932;11.592;2024-03-22T01:08:08;8.30;74.60
20568;DHT22;10442;49.932;11.592;2024-03-22T01:10:35;8.30;74.50
20568;DHT22;10442;49.932;11.592;2024-03-22T01:13:01;8.20;74.60
20568;DHT22;10442;49.932;11.592;2024-03-22T01:15:28;8.10;74.70
20568;DHT22;10442;49.932;11.592;2024-03-22T01:17:55;8.10;74.80
20568;DHT22;10442;49.932;11.592;2024-03-22T01:20:21;8.00;74.80
20568;DHT22;10442;49.932;11.592;2024-03-22T01:22:48;8.00;74.90
20568;DHT22;10442;49.932;11.592;2024-03-22T01:25:15;7.90;74.90
20568;DHT22;10442;49.932;11.592;2024-03-22T01:27:42;7.90;75.00
20568;DHT22;10442;49.932;11.592;2024-03-22T01:30:09;7.80;74.90
20568;DHT22;10442;49.932;11.592;2024-03-22T01:32:36;7.80;75.00
20568;DHT22;10442;49.932;11.592;2024-03-22T01:35:03;7.80;75.20
20568;DHT22;10442;49.932;11.592;2024-03-22T01:37:30;7.70;75.30
20568;DHT22;10442;49.932;11.592;2024-03-22T01:39:56;7.70;75.60
20568;DHT22;10442;49.932;11.592;2024-03-22T01:42:24;7.70;76.40
20568;DHT22;10442;49.932;11.592;2024-03-22T01:44:51;7.70;75.70
20568;DHT22;10442;49.932;11.592;2024-03-22T01:47:17;7.60;75.80
20568;DHT22;10442;49.932;11.592;2024-03-22T01:49:44;7.60;75.80
20568;DHT22;10442;49.932;11.592;2024-03-22T01:52:11;7.60;75.70
20568;DHT22;10442;49.932;11.592;2024-03-22T01:54:38;7.60;75.60
20568;DHT22;10442;49.932;11.592;2024-03-22T01:57:05;7.50;75.60
20568;DHT22;10442;49.932;11.592;2024-03-22T01:59:32;7.50;75.70
20568;DHT22;10442;49.932;11.592;2024-03-22T02:02:00;7.50;75.80
20568;DHT22;10442;49.932;11.592;2024-03-22T02:04:26;7.40;75.70
20568;DHT22;10442;49.932;11.592;2024-03-22T02:06:53;7.40;75.80
20568;DHT22;10442;49.932;11.592;2024-03-22T02:09:20;7.30;75.80
20568;DHT22;10442;49.932;11.592;2024-03-22T02:11:47;7.30;75.80
20568;DHT22;10442;49.932;11.592;2024-03-22T02:14:14;7.30;75.80
20568;DHT22;10442;49.932;11.592;2024-03-22T02:16:41;7.20;75.80
20568;DHT22;10442;49.932;11.592;2024-03-22T02:19:08;7.20;76.00
20568;DHT22;10442;49.932;11.592;2024-03-22T02:21:35;7.20;76.00
20568;DHT22;10442;49.932;11.592;2024-03-22T02:24:01;7.20;75.80
20568;DHT22;10442;49.932;11.592;2024-03-22T02:26:28;7.20;75.70
20568;DHT22;10442;49.932;11.592;2024-03-22T02:28:54;7.20;75.70
20568;DHT22;10442;49.932;11.592;2024-03-22T02:31:21;7.20;75.80
20568;DHT22;10442;49.932;11.592;2024-03-22T02:33:48;7.20;75.90
20568;DHT22;10442;49.932;11.592;2024-03-22T02:36:14;7.20;75.90
20568;DHT22;10442;49.932;11.592;2024-03-22T02:38:41;7.20;76.00
20568;DHT22;10442;49.932;11.592;2024-03-22T02:41:09;7.20;76.10
20568;DHT22;10442;49.932;11.592;2024-03-22T02:43:35;7.20;76.10
20568;DHT22;10442;49.932;11.592;2024-03-22T02:46:02;7.10;76.00
20568;DHT22;10442;49.932;11.592;2024-03-22T02:48:29;7.10;75.90
20568;DHT22;10442;49.932;11.592;2024-03-22T02:50:56;7.10;75.80
20568;DHT22;10442;49.932;11.592;2024-03-22T02:53:23;7.10;75.80
20568;DHT22;10442;49.932;11.592;2024-03-22T02:55:49;7.10;75.70
20568;DHT22;10442;49.932;11.592;2024-03-22T02:58:18;7.10;75.80
20568;DHT22;10442;49.932;11.592;2024-03-22T03:00:45;7.00;75.80
20568;DHT22;10442;49.932;11.592;2024-03-22T03:03:11;7.00;75.80
20568;DHT22;10442;49.932;11.592;2024-03-22T03:05:37;7.00;75.80
20568;DHT22;10442;49.932;11.592;2024-03-22T03:08:04;7.00;75.70
20568;DHT22;10442;49.932;11.592;2024-03-22T03:10:31;7.00;75.70
20568;DHT22;10442;49.932;11.592;2024-03-22T03:12:58;7.00;75.80
20568;DHT22;10442;49.932;11.592;2024-03-22T03:15:24;6.90;75.70
20568;DHT22;10442;49.932;11.592;2024-03-22T03:17:51;6.90;75.70
20568;DHT22;10442;49.932;11.592;2024-03-22T03:20:18;6.90;75.70
20568;DHT22;10442;49.932;11.592;2024-03-22T03:22:45;6.80;75.60
20568;DHT22;10442;49.932;11.592;2024-03-22T03:25:11;6.80;75.50
20568;DHT22;10442;49.932;11.592;2024-03-22T03:27:38;6.80;75.70
20568;DHT22;10442;49.932;11.592;2024-03-22T03:30:06;6.70;75.70
20568;DHT22;10442;49.932;11.592;2024-03-22T03:32:33;6.70;75.70
20568;DHT22;10442;49.932;11.592;2024-03-22T03:34:59;6.70;75.80
20568;DHT22;10442;49.932;11.592;2024-03-22T03:37:26;6.70;75.80
20568;DHT22;10442;49.932;11.592;2024-03-22T03:39:53;6.70;75.90
20568;DHT22;10442;49.932;11.592;2024-03-22T03:42:19;6.70;76.00
20568;DHT22;10442;49.932;11.592;2024-03-22T03:44:46;6.70;76.10
20568;DHT22;10442;49.932;11.592;2024-03-22T03:47:12;6.70;76.30
20568;DHT22;10442;49.932;11.592;2024-03-22T03:49:39;6.70;76.40
20568;DHT22;10442;49.932;11.592;2024-03-22T03:52:05;6.70;76.50
20568;DHT22;10442;49.932;11.592;2024-03-22T03:54:32;6.70;76.60
20568;DHT22;10442;49.932;11.592;2024-03-22T03:56:58;6.80;76.60
20568;DHT22;10442;49.932;11.592;2024-03-22T03:59:25;6.80;76.60
20568;DHT22;10442;49.932;11.592;2024-03-22T04:01:52;6.80;76.60
20568;DHT22;10442;49.932;11.592;2024-03-22T04:04:19;6.80;76.60
20568;DHT22;10442;49.932;11.592;2024-03-22T04:06:46;6.80;76.60
20568;DHT22;10442;49.932;11.592;2024-03-22T04:09:12;6.80;76.60
20568;DHT22;10442;49.932;11.592;2024-03-22T04:11:39;6.90;76.90
20568;DHT22;10442;49.932;11.592;2024-03-22T04:14:05;6.90;77.00
20568;DHT22;10442;49.932;11.592;2024-03-22T04:16:32;6.90;77.00
20568;DHT22;10442;49.932;11.592;2024-03-22T04:18:59;6.90;76.90
20568;DHT22;10442;49.932;11.592;2024-03-22T04:21:25;6.90;76.80
20568;DHT22;10442;49.932;11.592;2024-03-22T04:23:52;6.90;76.70
20568;DHT22;10442;49.932;11.592;2024-03-22T04:26:19;7.00;76.60
20568;DHT22;10442;49.932;11.592;2024-03-22T04:28:47;7.00;76.40
20568;DHT22;10442;49.932;11.592;2024-03-22T04:31:14;7.00;76.30
20568;DHT22;10442;49.932;11.592;2024-03-22T04:33:40;7.00;76.10
20568;DHT22;10442;49.932;11.592;2024-03-22T04:36:07;6.90;76.00
20568;DHT22;10442;49.932;11.592;2024-03-22T04:38:35;6.90;75.90
20568;DHT22;10442;49.932;11.592;2024-03-22T04:41:03;6.90;75.80
20568;DHT22;10442;49.932;11.592;2024-03-22T04:43:30;6.80;75.80
20568;DHT22;10442;49.932;11.592;2024-03-22T04:45:56;6.80;75.70
20568;DHT22;10442;49.932;11.592;2024-03-22T04:48:23;6.70;75.70
20568;DHT22;10442;49.932;11.592;2024-03-22T04:50:51;6.70;75.70
20568;DHT22;10442;49.932;11.592;2024-03-22T04:53:19;6.60;75.80
20568;DHT22;10442;49.932;11.592;2024-03-22T04:55:50;6.60;75.80
20568;DHT22;10442;49.932;11.592;2024-03-22T04:58:18;6.50;75.90
20568;DHT22;10442;49.932;11.592;2024-03-22T05:00:46;6.50;76.00
20568;DHT22;10442;49.932;11.592;2024-03-22T05:03:13;6.40;76.10
20568;DHT22;10442;49.932;11.592;2024-03-22T05:05:40;6.40;76.20
20568;DHT22;10442;49.932;11.592;2024-03-22T05:08:07;6.40;76.50
20568;DHT22;10442;49.932;11.592;2024-03-22T05:10:34;6.40;76.40
20568;DHT22;10442;49.932;11.592;2024-03-22T05:13:01;6.40;76.50
20568;DHT22;10442;49.932;11.592;2024-03-22T05:15:28;6.40;76.50
20568;DHT22;10442;49.932;11.592;2024-03-22T05:17:57;6.40;76.50
20568;DHT22;10442;49.932;11.592;2024-03-22T05:20:25;6.40;76.60
20568;DHT22;10442;49.932;11.592;2024-03-22T05:22:51;6.30;76.20
20568;DHT22;10442;49.932;11.592;2024-03-22T05:25:18;6.30;76.20
20568;DHT22;10442;49.932;11.592;2024-03-22T05:27:45;6.30;76.40
20568;DHT22;10442;49.932;11.592;2024-03-22T05:30:13;6.30;76.40
20568;DHT22;10442;49.932;11.592;2024-03-22T05:32:40;6.30;76.50
20568;DHT22;10442;49.932;11.592;2024-03-22T05:35:07;6.30;76.70
20568;DHT22;10442;49.932;11.592;2024-03-22T05:37:34;6.30;76.70
20568;DHT22;10442;49.932;11.592;2024-03-22T05:40:02;6.40;76.80
20568;DHT22;10442;49.932;11.592;2024-03-22T05:42:31;6.40;76.70
20568;DHT22;10442;49.932;11.592;2024-03-22T05:44:58;6.40;76.60
20568;DHT22;10442;49.932;11.592;2024-03-22T05:47:24;6.50;76.70
20568;DHT22;10442;49.932;11.592;2024-03-22T05:49:51;6.50;76.70
20568;DHT22;10442;49.932;11.592;2024-03-22T05:52:18;6.50;76.80
20568;DHT22;10442;49.932;11.592;2024-03-22T05:54:45;6.60;76.90
20568;DHT22;10442;49.932;11.592;2024-03-22T05:57:12;6.60;77.00
20568;DHT22;10442;49.932;11.592;2024-03-22T05:59:39;6.70;77.10
20568;DHT22;10442;49.932;11.592;2024-03-22T06:02:07;6.80;77.30
20568;DHT22;10442;49.932;11.592;2024-03-22T06:04:33;6.90;77.30
20568;DHT22;10442;49.932;11.592;2024-03-22T06:07:00;7.00;77.30
20568;DHT22;10442;49.932;11.592;2024-03-22T06:09:29;7.10;77.30
20568;DHT22;10442;49.932;11.592;2024-03-22T06:12:13;7.20;77.30
20568;DHT22;10442;49.932;11.592;2024-03-22T06:14:43;7.40;77.30
20568;DHT22;10442;49.932;11.592;2024-03-22T06:17:10;7.40;77.20
20568;DHT22;10442;49.932;11.592;2024-03-22T06:19:37;7.50;77.00
20568;DHT22;10442;49.932;11.592;2024-03-22T06:22:04;7.60;76.80
20568;DHT22;10442;49.932;11.592;2024-03-22T06:24:30;7.70;76.80
20568;DHT22;10442;49.932;11.592;2024-03-22T06:26:57;7.80;76.90
20568;DHT22;10442;49.932;11.592;2024-03-22T06:29:25;7.80;76.90
20568;DHT22;10442;49.932;11.592;2024-03-22T06:31:52;7.90;77.10
20568;DHT22;10442;49.932;11.592;2024-03-22T06:34:19;7.90;77.10
20568;DHT22;10442;49.932;11.592;2024-03-22T06:36:46;8.00;77.20
20568;DHT22;10442;49.932;11.592;2024-03-22T06:39:14;8.00;77.30
20568;DHT22;10442;49.932;11.592;2024-03-22T06:41:42;8.10;77.40
20568;DHT22;10442;49.932;11.592;2024-03-22T06:44:09;8.20;77.50
20568;DHT22;10442;49.932;11.592;2024-03-22T06:46:39;8.30;77.50
20568;DHT22;10442;49.932;11.592;2024-03-22T06:49:07;8.30;77.40
20568;DHT22;10442;49.932;11.592;2024-03-22T06:51:34;8.40;77.40
20568;DHT22;10442;49.932;11.592;2024-03-22T06:54:00;8.60;77.50
20568;DHT22;10442;49.932;11.592;2024-03-22T06:56:27;8.60;77.60
20568;DHT22;10442;49.932;11.592;2024-03-22T06:58:54;8.60;77.60
20568;DHT22;10442;49.932;11.592;2024-03-22T07:01:20;8.70;77.60
20568;DHT22;10442;49.932;11.592;2024-03-22T07:03:47;8.80;77.60
20568;DHT22;10442;49.932;11.592;2024-03-22T07:06:14;8.90;77.60
20568;DHT22;10442;49.932;11.592;2024-03-22T07:08:42;8.90;77.50
20568;DHT22;10442;49.932;11.592;2024-03-22T07:11:08;9.00;77.50
20568;DHT22;10442;49.932;11.592;2024-03-22T07:13:35;9.20;77.50
20568;DHT22;10442;49.932;11.592;2024-03-22T07:16:03;9.20;77.20
20568;DHT22;10442;49.932;11.592;2024-03-22T07:18:30;9.30;77.10
20568;DHT22;10442;49.932;11.592;2024-03-22T07:20:58;9.40;77.20
20568;DHT22;10442;49.932;11.592;2024-03-22T07:23:28;9.50;77.00
20568;DHT22;10442;49.932;11.592;2024-03-22T07:25:54;9.60;76.70
20568;DHT22;10442;49.932;11.592;2024-03-22T07:28:21;9.70;76.60
20568;DHT22;10442;49.932;11.592;2024-03-22T07:30:48;9.80;76.40
20568;DHT22;10442;49.932;11.592;2024-03-22T07:33:14;9.90;76.40
20568;DHT22;10442;49.932;11.592;2024-03-22T07:35:44;9.90;76.20
20568;DHT22;10442;49.932;11.592;2024-03-22T07:38:11;10.00;76.10
20568;DHT22;10442;49.932;11.592;2024-03-22T07:40:39;10.10;76.00
20568;DHT22;10442;49.932;11.592;2024-03-22T07:43:06;10.10;76.00
20568;DHT22;10442;49.932;11.592;2024-03-22T07:45:34;10.20;76.00
20568;DHT22;10442;49.932;11.592;2024-03-22T07:48:03;10.30;76.10
20568;DHT22;10442;49.932;11.592;2024-03-22T07:50:29;10.40;76.00
20568;DHT22;10442;49.932;11.592;2024-03-22T07:52:56;10.40;75.70
20568;DHT22;10442;49.932;11.592;2024-03-22T07:55:23;10.50;75.70
20568;DHT22;10442;49.932;11.592;2024-03-22T07:57:51;10.60;75.80
20568;DHT22;10442;49.932;11.592;2024-03-22T08:00:17;10.80;75.60
20568;DHT22;10442;49.932;11.592;2024-03-22T08:02:44;10.90;75.30
20568;DHT22;10442;49.932;11.592;2024-03-22T08:05:11;11.00;74.70
20568;DHT22;10442;49.932;11.592;2024-03-22T08:07:37;11.10;74.30
20568;DHT22;10442;49.932;11.592;2024-03-22T08:10:04;11.20;74.00
20568;DHT22;10442;49.932;11.592;2024-03-22T08:12:31;11.30;73.80
20568;DHT22;10442;49.932;11.592;2024-03-22T08:14:58;11.40;73.50
20568;DHT22;10442;49.932;11.592;2024-03-22T08:17:24;11.50;73.40
20568;DHT22;10442;49.932;11.592;2024-03-22T08:19:51;11.60;73.10
20568;DHT22;10442;49.932;11.592;2024-03-22T08:22:18;11.70;73.10
20568;DHT22;10442;49.932;11.592;2024-03-22T08:24:45;11.80;73.00
20568;DHT22;10442;49.932;11.592;2024-03-22T08:27:12;12.00;73.10
20568;DHT22;10442;49.932;11.592;2024-03-22T08:29:40;12.10;73.50
20568;DHT22;10442;49.932;11.592;2024-03-22T08:32:07;12.30;73.60
20568;DHT22;10442;49.932;11.592;2024-03-22T08:34:34;12.50;73.20
20568;DHT22;10442;49.932;11.592;2024-03-22T08:37:00;12.60;72.80
20568;DHT22;10442;49.932;11.592;2024-03-22T08:39:27;12.90;72.30
20568;DHT22;10442;49.932;11.592;2024-03-22T08:41:54;13.00;72.20
20568;DHT22;10442;49.932;11.592;2024-03-22T08:44:21;13.20;71.70
20568;DHT22;10442;49.932;11.592;2024-03-22T08:46:49;13.40;71.40
20568;DHT22;10442;49.932;11.592;2024-03-22T08:49:16;13.70;70.90
20568;DHT22;10442;49.932;11.592;2024-03-22T08:51:45;13.90;70.50
20568;DHT22;10442;49.932;11.592;2024-03-22T08:54:12;14.00;70.30
20568;DHT22;10442;49.932;11.592;2024-03-22T08:56:39;14.30;70.10
20568;DHT22;10442;49.932;11.592;2024-03-22T08:59:06;14.60;69.70
20568;DHT22;10442;49.932;11.592;2024-03-22T09:01:32;15.10;70.40
20568;DHT22;10442;49.932;11.592;2024-03-22T09:03:59;15.70;70.00
20568;DHT22;10442;49.932;11.592;2024-03-22T09:06:26;16.40;69.90
20568;DHT22;10442;49.932;11.592;2024-03-22T09:08:52;17.20;68.30
20568;DHT22;10442;49.932;11.592;2024-03-22T09:11:21;18.00;66.30
20568;DHT22;10442;49.932;11.592;2024-03-22T09:13:51;18.70;63.70
20568;DHT22;10442;49.932;11.592;2024-03-22T09:16:23;19.20;60.30
20568;DHT22;10442;49.932;11.592;2024-03-22T09:18:50;19.60;59.30
20568;DHT22;10442;49.932;11.592;2024-03-22T09:21:17;19.70;57.50
20568;DHT22;10442;49.932;11.592;2024-03-22T09:23:44;19.80;57.00
20568;DHT22;10442;49.932;11.592;2024-03-22T09:26:11;19.70;56.70
20568;DHT22;10442;49.932;11.592;2024-03-22T09:28:37;19.60;56.50
20568;DHT22;10442;49.932;11.592;2024-03-22T09:31:06;19.40;56.40
20568;DHT22;10442;49.932;11.592;2024-03-22T09:33:34;19.20;56.00
20568;DHT22;10442;49.932;11.592;2024-03-22T09:36:01;19.00;56.80
20568;DHT22;10442;49.932;11.592;2024-03-22T09:38:28;18.90;57.10
20568;DHT22;10442;49.932;11.592;2024-03-22T09:40:55;18.70;57.30
20568;DHT22;10442;49.932;11.592;2024-03-22T09:43:23;18.50;57.10
20568;DHT22;10442;49.932;11.592;2024-03-22T09:45:50;18.40;57.30
20568;DHT22;10442;49.932;11.592;2024-03-22T09:48:18;18.30;57.60
20568;DHT22;10442;49.932;11.592;2024-03-22T09:50:46;18.20;57.30
20568;DHT22;10442;49.932;11.592;2024-03-22T09:53:20;18.10;57.50
20568;DHT22;10442;49.932;11.592;2024-03-22T09:55:49;18.00;57.50
20568;DHT22;10442;49.932;11.592;2024-03-22T09:58:16;18.00;57.80
20568;DHT22;10442;49.932;11.592;2024-03-22T10:00:46;18.00;57.90
20568;DHT22;10442;49.932;11.592;2024-03-22T10:03:13;17.90;57.90
20568;DHT22;10442;49.932;11.592;2024-03-22T10:05:40;17.90;57.90
20568;DHT22;10442;49.932;11.592;2024-03-22T10:08:07;18.00;58.20
20568;DHT22;10442;49.932;11.592;2024-03-22T10:10:34;18.00;58.00
20568;DHT22;10442;49.932;11.592;2024-03-22T10:13:01;18.00;58.00
20568;DHT22;10442;49.932;11.592;2024-03-22T10:15:28;18.10;57.70
20568;DHT22;10442;49.932;11.592;2024-03-22T10:17:57;18.10;57.80
20568;DHT22;10442;49.932;11.592;2024-03-22T10:20:24;18.20;57.90
20568;DHT22;10442;49.932;11.592;2024-03-22T10:22:58;18.30;57.30
20568;DHT22;10442;49.932;11.592;2024-03-22T10:25:26;18.40;57.10
20568;DHT22;10442;49.932;11.592;2024-03-22T10:27:55;18.40;56.80
20568;DHT22;10442;49.932;11.592;2024-03-22T10:30:23;18.40;56.80
20568;DHT22;10442;49.932;11.592;2024-03-22T10:32:52;18.50;56.90
20568;DHT22;10442;49.932;11.592;2024-03-22T10:35:19;18.50;56.50
20568;DHT22;10442;49.932;11.592;2024-03-22T10:37:46;18.60;56.40
20568;DHT22;10442;49.932;11.592;2024-03-22T10:40:13;18.70;56.20
20568;DHT22;10442;49.932;11.592;2024-03-22T10:42:42;18.70;56.10
20568;DHT22;10442;49.932;11.592;2024-03-22T10:45:12;18.80;55.50
20568;DHT22;10442;49.932;11.592;2024-03-22T10:47:39;18.90;55.80
20568;DHT22;10442;49.932;11.592;2024-03-22T10:50:08;18.90;55.40
20568;DHT22;10442;49.932;11.592;2024-03-22T10:55:08;19.00;55.10
20568;DHT22;10442;49.932;11.592;2024-03-22T10:57:37;19.00;54.70
20568;DHT22;10442;49.932;11.592;2024-03-22T11:00:08;19.10;54.60
20568;DHT22;10442;49.932;11.592;2024-03-22T11:02:37;19.10;54.40
20568;DHT22;10442;49.932;11.592;2024-03-22T11:05:04;19.20;54.10
20568;DHT22;10442;49.932;11.592;2024-03-22T11:07:33;19.30;53.70
20568;DHT22;10442;49.932;11.592;2024-03-22T11:10:03;19.30;53.30
20568;DHT22;10442;49.932;11.592;2024-03-22T11:12:32;19.40;53.30
20568;DHT22;10442;49.932;11.592;2024-03-22T11:15:00;19.40;52.80
20568;DHT22;10442;49.932;11.592;2024-03-22T11:17:26;19.40;52.90
20568;DHT22;10442;49.932;11.592;2024-03-22T11:19:53;19.50;53.10
20568;DHT22;10442;49.932;11.592;2024-03-22T11:22:21;19.50;52.80
20568;DHT22;10442;49.932;11.592;2024-03-22T11:24:48;19.50;52.70
20568;DHT22;10442;49.932;11.592;2024-03-22T11:27:15;19.60;52.60
20568;DHT22;10442;49.932;11.592;2024-03-22T11:29:41;19.60;52.90
20568;DHT22;10442;49.932;11.592;2024-03-22T11:32:10;19.70;52.50
20568;DHT22;10442;49.932;11.592;2024-03-22T11:34:39;19.70;51.90
20568;DHT22;10442;49.932;11.592;2024-03-22T11:37:07;19.70;51.60
20568;DHT22;10442;49.932;11.592;2024-03-22T11:39:37;19.80;51.90
20568;DHT22;10442;49.932;11.592;2024-03-22T11:42:05;19.80;51.80
20568;DHT22;10442;49.932;11.592;2024-03-22T11:44:37;19.90;51.60
20568;DHT22;10442;49.932;11.592;2024-03-22T11:47:05;19.90;51.10
20568;DHT22;10442;49.932;11.592;2024-03-22T11:49:32;19.90;51.10
20568;DHT22;10442;49.932;11.592;2024-03-22T11:52:00;19.90;51.60
20568;DHT22;10442;49.932;11.592;2024-03-22T11:54:27;20.00;51.40
20568;DHT22;10442;49.932;11.592;2024-03-22T11:56:57;20.00;51.50
20568;DHT22;10442;49.932;11.592;2024-03-22T11:59:24;20.00;51.50
20568;DHT22;10442;49.932;11.592;2024-03-22T12:01:50;20.10;51.00
20568;DHT22;10442;49.932;11.592;2024-03-22T12:04:17;20.10;51.40
20568;DHT22;10442;49.932;11.592;2024-03-22T12:06:44;20.20;51.30
20568;DHT22;10442;49.932;11.592;2024-03-22T12:09:12;20.20;51.50
20568;DHT22;10442;49.932;11.592;2024-03-22T12:11:40;20.20;51.10
20568;DHT22;10442;49.932;11.592;2024-03-22T12:14:07;20.30;51.20
20568;DHT22;10442;49.932;11.592;2024-03-22T12:16:34;20.30;50.30
20568;DHT22;10442;49.932;11.592;2024-03-22T12:19:01;20.30;50.50
20568;DHT22;10442;49.932;11.592;2024-03-22T12:21:27;20.30;50.10
20568;DHT22;10442;49.932;11.592;2024-03-22T12:23:54;20.30;50.40
20568;DHT22;10442;49.932;11.592;2024-03-22T12:26:21;20.40;50.30
20568;DHT22;10442;49.932;11.592;2024-03-22T12:28:47;20.30;49.60
20568;DHT22;10442;49.932;11.592;2024-03-22T12:31:16;20.30;50.00
20568;DHT22;10442;49.932;11.592;2024-03-22T12:33:44;20.40;50.20
20568;DHT22;10442;49.932;11.592;2024-03-22T12:36:12;20.40;50.30
20568;DHT22;10442;49.932;11.592;2024-03-22T12:38:38;20.40;50.30
20568;DHT22;10442;49.932;11.592;2024-03-22T12:41:05;20.50;50.20
20568;DHT22;10442;49.932;11.592;2024-03-22T12:43:33;20.50;50.30
20568;DHT22;10442;49.932;11.592;2024-03-22T12:46:01;20.50;49.60
20568;DHT22;10442;49.932;11.592;2024-03-22T12:48:28;20.60;50.30
20568;DHT22;10442;49.932;11.592;2024-03-22T12:50:54;20.60;50.30
20568;DHT22;10442;49.932;11.592;2024-03-22T12:53:21;20.70;49.80
20568;DHT22;10442;49.932;11.592;2024-03-22T12:55:48;20.70;49.60
20568;DHT22;10442;49.932;11.592;2024-03-22T12:58:15;20.80;49.70
20568;DHT22;10442;49.932;11.592;2024-03-22T13:00:42;20.90;49.70
20568;DHT22;10442;49.932;11.592;2024-03-22T13:03:09;21.00;49.30
20568;DHT22;10442;49.932;11.592;2024-03-22T13:05:38;21.00;48.80
20568;DHT22;10442;49.932;11.592;2024-03-22T13:08:05;21.00;48.40
20568;DHT22;10442;49.932;11.592;2024-03-22T13:10:34;20.90;48.40
20568;DHT22;10442;49.932;11.592;2024-03-22T13:13:00;20.90;48.10
20568;DHT22;10442;49.932;11.592;2024-03-22T13:15:27;20.90;48.50
20568;DHT22;10442;49.932;11.592;2024-03-22T13:17:53;20.80;48.40
20568;DHT22;10442;49.932;11.592;2024-03-22T13:20:23;20.80;48.40
20568;DHT22;10442;49.932;11.592;2024-03-22T13:22:49;20.70;48.70
20568;DHT22;10442;49.932;11.592;2024-03-22T13:25:16;20.70;48.60
20568;DHT22;10442;49.932;11.592;2024-03-22T13:27:44;20.60;48.70
20568;DHT22;10442;49.932;11.592;2024-03-22T13:30:10;20.60;49.30
20568;DHT22;10442;49.932;11.592;2024-03-22T13:32:38;20.50;48.50
20568;DHT22;10442;49.932;11.592;2024-03-22T13:35:05;20.50;48.80
20568;DHT22;10442;49.932;11.592;2024-03-22T13:37:32;20.50;48.90
20568;DHT22;10442;49.932;11.592;2024-03-22T13:39:59;20.50;49.10
20568;DHT22;10442;49.932;11.592;2024-03-22T13:42:27;20.50;49.00
20568;DHT22;10442;49.932;11.592;2024-03-22T13:44:53;20.50;48.80
20568;DHT22;10442;49.932;11.592;2024-03-22T13:47:20;20.50;48.70
20568;DHT22;10442;49.932;11.592;2024-03-22T13:49:47;20.50;48.50
20568;DHT22;10442;49.932;11.592;2024-03-22T13:52:14;20.50;48.60
20568;DHT22;10442;49.932;11.592;2024-03-22T13:54:41;20.50;48.80
20568;DHT22;10442;49.932;11.592;2024-03-22T13:57:07;20.40;48.20
20568;DHT22;10442;49.932;11.592;2024-03-22T13:59:34;20.40;48.80
20568;DHT22;10442;49.932;11.592;2024-03-22T14:02:00;20.40;49.10
20568;DHT22;10442;49.932;11.592;2024-03-22T14:04:27;20.40;49.10
20568;DHT22;10442;49.932;11.592;2024-03-22T14:06:55;20.40;48.50
20568;DHT22;10442;49.932;11.592;2024-03-22T14:09:22;20.50;48.60
20568;DHT22;10442;49.932;11.592;2024-03-22T14:11:48;20.50;48.40
20568;DHT22;10442;49.932;11.592;2024-03-22T14:14:15;20.50;48.10
20568;DHT22;10442;49.932;11.592;2024-03-22T14:16:42;20.60;48.20
20568;DHT22;10442;49.932;11.592;2024-03-22T14:19:08;20.60;48.00
20568;DHT22;10442;49.932;11.592;2024-03-22T14:21:36;20.70;47.80
20568;DHT22;10442;49.932;11.592;2024-03-22T14:24:05;20.70;47.20
20568;DHT22;10442;49.932;11.592;2024-03-22T14:26:31;20.70;46.80
20568;DHT22;10442;49.932;11.592;2024-03-22T14:28:58;20.70;46.80
20568;DHT22;10442;49.932;11.592;2024-03-22T14:31:25;20.70;46.60
20568;DHT22;10442;49.932;11.592;2024-03-22T14:33:52;20.70;46.70
20568;DHT22;10442;49.932;11.592;2024-03-22T14:36:19;20.80;46.90
20568;DHT22;10442;49.932;11.592;2024-03-22T14:38:45;20.80;46.60
20568;DHT22;10442;49.932;11.592;2024-03-22T14:41:12;20.80;46.90
20568;DHT22;10442;49.932;11.592;2024-03-22T14:43:39;20.80;46.90
20568;DHT22;10442;49.932;11.592;2024-03-22T14:46:05;20.80;46.70
20568;DHT22;10442;49.932;11.592;2024-03-22T14:48:32;20.70;46.70
20568;DHT22;10442;49.932;11.592;2024-03-22T14:50:59;20.70;46.80
20568;DHT22;10442;49.932;11.592;2024-03-22T14:53:26;20.70;47.20
20568;DHT22;10442;49.932;11.592;2024-03-22T14:55:57;20.70;47.50
20568;DHT22;10442;49.932;11.592;2024-03-22T14:58:28;20.70;47.40
20568;DHT22;10442;49.932;11.592;2024-03-22T15:00:56;20.70;47.40
20568;DHT22;10442;49.932;11.592;2024-03-22T15:03:24;20.70;47.60
20568;DHT22;10442;49.932;11.592;2024-03-22T15:05:51;20.70;47.70
20568;DHT22;10442;49.932;11.592;2024-03-22T15:08:23;20.60;47.70
20568;DHT22;10442;49.932;11.592;2024-03-22T15:10:49;20.60;47.50
20568;DHT22;10442;49.932;11.592;2024-03-22T15:13:17;20.60;47.60
20568;DHT22;10442;49.932;11.592;2024-03-22T15:15:57;20.60;47.90
20568;DHT22;10442;49.932;11.592;2024-03-22T15:18:24;20.60;48.00
20568;DHT22;10442;49.932;11.592;2024-03-22T15:20:51;20.60;48.10
20568;DHT22;10442;49.932;11.592;2024-03-22T15:23:21;20.60;46.90
20568;DHT22;10442;49.932;11.592;2024-03-22T15:25:48;20.50;45.90